sensor_id;sensor_type;location;lat;lon;timestamp;temperature;humidity
54202;DHT22;40108;53.152;5.844;2023-04-08T00:01:23;4.10;84.30
54202;DHT22;40108;53.152;5.844;2023-04-08T00:03:49;4.10;84.20
54202;DHT22;40108;53.152;5.844;2023-04-08T00:06:14;4.00;84.30
54202;DHT22;40108;53.152;5.844;2023-04-08T00:08:40;4.00;84.30
54202;DHT22;40108;53.152;5.844;2023-04-08T00:11:06;4.00;84.50
54202;DHT22;40108;53.152;5.844;2023-04-08T00:13:32;3.90;84.50
54202;DHT22;40108;53.152;5.844;2023-04-08T00:15:57;3.90;84.70
54202;DHT22;40108;53.152;5.844;2023-04-08T00:18:23;3.90;84.80
54202;DHT22;40108;53.152;5.844;2023-04-08T00:20:49;3.90;84.90
54202;DHT22;40108;53.152;5.844;2023-04-08T00:23:15;3.80;84.90
54202;DHT22;40108;53.152;5.844;2023-04-08T00:25:41;3.80;85.00
54202;DHT22;40108;53.152;5.844;2023-04-08T00:28:07;3.80;85.30
54202;DHT22;40108;53.152;5.844;2023-04-08T00:30:33;3.80;85.50
54202;DHT22;40108;53.152;5.844;2023-04-08T00:32:59;3.70;85.70
54202;DHT22;40108;53.152;5.844;2023-04-08T00:35:26;3.70;85.80
54202;DHT22;40108;53.152;5.844;2023-04-08T00:37:51;3.70;85.90
54202;DHT22;40108;53.152;5.844;2023-04-08T00:40:17;3.70;85.80
54202;DHT22;40108;53.152;5.844;2023-04-08T00:42:43;3.70;85.90
54202;DHT22;40108;53.152;5.844;2023-04-08T00:45:09;3.60;86.00
54202;DHT22;40108;53.152;5.844;2023-04-08T00:47:35;3.70;86.10
54202;DHT22;40108;53.152;5.844;2023-04-08T00:50:01;3.50;86.30
54202;DHT22;40108;53.152;5.844;2023-04-08T00:52:27;3.50;86.50
54202;DHT22;40108;53.152;5.844;2023-04-08T00:54:53;3.50;86.70
54202;DHT22;40108;53.152;5.844;2023-04-08T00:57:20;3.40;86.90
54202;DHT22;40108;53.152;5.844;2023-04-08T00:59:45;3.40;86.90
54202;DHT22;40108;53.152;5.844;2023-04-08T01:02:36;3.40;87.10
54202;DHT22;40108;53.152;5.844;2023-04-08T01:05:14;3.40;87.40
54202;DHT22;40108;53.152;5.844;2023-04-08T01:07:46;3.40;87.50
54202;DHT22;40108;53.152;5.844;2023-04-08T01:10:17;3.40;87.90
54202;DHT22;40108;53.152;5.844;2023-04-08T01:13:02;3.40;87.80
54202;DHT22;40108;53.152;5.844;2023-04-08T01:15:29;3.30;87.90
54202;DHT22;40108;53.152;5.844;2023-04-08T01:17:56;3.30;88.00
54202;DHT22;40108;53.152;5.844;2023-04-08T01:20:24;3.30;88.10
54202;DHT22;40108;53.152;5.844;2023-04-08T01:25:33;3.30;88.10
54202;DHT22;40108;53.152;5.844;2023-04-08T01:28:02;3.30;88.30
54202;DHT22;40108;53.152;5.844;2023-04-08T01:30:30;3.20;88.30
54202;DHT22;40108;53.152;5.844;2023-04-08T01:32:58;3.20;88.50
54202;DHT22;40108;53.152;5.844;2023-04-08T01:35:26;3.20;88.90
54202;DHT22;40108;53.152;5.844;2023-04-08T01:37:53;3.20;89.00
54202;DHT22;40108;53.152;5.844;2023-04-08T01:40:20;3.20;89.30
54202;DHT22;40108;53.152;5.844;2023-04-08T01:42:47;3.20;89.50
54202;DHT22;40108;53.152;5.844;2023-04-08T01:45:14;3.20;89.60
54202;DHT22;40108;53.152;5.844;2023-04-08T01:47:43;3.20;89.80
54202;DHT22;40108;53.152;5.844;2023-04-08T01:50:09;3.20;89.70
54202;DHT22;40108;53.152;5.844;2023-04-08T01:52:37;3.10;89.50
54202;DHT22;40108;53.152;5.844;2023-04-08T01:55:05;3.00;89.50
54202;DHT22;40108;53.152;5.844;2023-04-08T01:57:32;3.00;89.50
54202;DHT22;40108;53.152;5.844;2023-04-08T02:00:01;3.00;89.80
54202;DHT22;40108;53.152;5.844;2023-04-08T02:02:29;3.00;90.00
54202;DHT22;40108;53.152;5.844;2023-04-08T02:04:57;3.00;90.20
54202;DHT22;40108;53.152;5.844;2023-04-08T02:07:23;3.00;90.30
54202;DHT22;40108;53.152;5.844;2023-04-08T02:09:49;3.00;90.40
54202;DHT22;40108;53.152;5.844;2023-04-08T02:12:15;3.00;90.40
54202;DHT22;40108;53.152;5.844;2023-04-08T02:14:41;3.00;90.40
54202;DHT22;40108;53.152;5.844;2023-04-08T02:17:13;2.90;90.30
54202;DHT22;40108;53.152;5.844;2023-04-08T02:20:21;2.90;90.50
54202;DHT22;40108;53.152;5.844;2023-04-08T02:22:49;2.90;90.60
54202;DHT22;40108;53.152;5.844;2023-04-08T02:25:22;2.90;90.70
54202;DHT22;40108;53.152;5.844;2023-04-08T02:27:49;2.90;91.00
54202;DHT22;40108;53.152;5.844;2023-04-08T02:30:16;2.90;91.10
54202;DHT22;40108;53.152;5.844;2023-04-08T02:32:44;2.90;91.20
54202;DHT22;40108;53.152;5.844;2023-04-08T02:35:11;2.90;91.20
54202;DHT22;40108;53.152;5.844;2023-04-08T02:37:37;2.90;91.40
54202;DHT22;40108;53.152;5.844;2023-04-08T02:40:24;2.90;91.30
54202;DHT22;40108;53.152;5.844;2023-04-08T02:42:50;2.80;91.00
54202;DHT22;40108;53.152;5.844;2023-04-08T02:45:16;2.80;90.90
54202;DHT22;40108;53.152;5.844;2023-04-08T02:47:42;2.80;90.90
54202;DHT22;40108;53.152;5.844;2023-04-08T02:50:09;2.80;91.00
54202;DHT22;40108;53.152;5.844;2023-04-08T02:52:34;2.80;91.10
54202;DHT22;40108;53.152;5.844;2023-04-08T02:55:00;2.80;91.10
54202;DHT22;40108;53.152;5.844;2023-04-08T02:57:26;2.70;91.20
54202;DHT22;40108;53.152;5.844;2023-04-08T02:59:52;2.80;91.30
54202;DHT22;40108;53.152;5.844;2023-04-08T03:02:18;2.70;91.40
54202;DHT22;40108;53.152;5.844;2023-04-08T03:04:43;2.70;91.50
54202;DHT22;40108;53.152;5.844;2023-04-08T03:07:09;2.70;91.60
54202;DHT22;40108;53.152;5.844;2023-04-08T03:09:35;2.70;91.80
54202;DHT22;40108;53.152;5.844;2023-04-08T03:12:01;2.70;91.70
54202;DHT22;40108;53.152;5.844;2023-04-08T03:14:27;2.70;91.70
54202;DHT22;40108;53.152;5.844;2023-04-08T03:16:52;2.70;91.90
54202;DHT22;40108;53.152;5.844;2023-04-08T03:19:18;2.60;91.70
54202;DHT22;40108;53.152;5.844;2023-04-08T03:21:44;2.60;91.80
54202;DHT22;40108;53.152;5.844;2023-04-08T03:24:09;2.60;91.80
54202;DHT22;40108;53.152;5.844;2023-04-08T03:26:35;2.70;91.90
54202;DHT22;40108;53.152;5.844;2023-04-08T03:29:01;2.60;92.00
54202;DHT22;40108;53.152;5.844;2023-04-08T03:31:26;2.60;92.00
54202;DHT22;40108;53.152;5.844;2023-04-08T03:33:52;2.60;92.20
54202;DHT22;40108;53.152;5.844;2023-04-08T03:36:18;2.60;92.30
54202;DHT22;40108;53.152;5.844;2023-04-08T03:38:43;2.60;92.50
54202;DHT22;40108;53.152;5.844;2023-04-08T03:41:09;2.50;92.60
54202;DHT22;40108;53.152;5.844;2023-04-08T03:43:35;2.50;92.70
54202;DHT22;40108;53.152;5.844;2023-04-08T03:46:01;2.50;92.80
54202;DHT22;40108;53.152;5.844;2023-04-08T03:48:27;2.50;92.90
54202;DHT22;40108;53.152;5.844;2023-04-08T03:50:52;2.50;92.90
54202;DHT22;40108;53.152;5.844;2023-04-08T03:53:18;2.50;92.90
54202;DHT22;40108;53.152;5.844;2023-04-08T03:55:44;2.50;93.40
54202;DHT22;40108;53.152;5.844;2023-04-08T03:58:10;2.50;93.40
54202;DHT22;40108;53.152;5.844;2023-04-08T04:00:36;2.50;93.50
54202;DHT22;40108;53.152;5.844;2023-04-08T04:03:01;2.50;93.40
54202;DHT22;40108;53.152;5.844;2023-04-08T04:05:27;2.50;93.80
54202;DHT22;40108;53.152;5.844;2023-04-08T04:07:53;2.50;93.70
54202;DHT22;40108;53.152;5.844;2023-04-08T04:10:19;2.50;93.90
54202;DHT22;40108;53.152;5.844;2023-04-08T04:12:45;2.50;94.10
54202;DHT22;40108;53.152;5.844;2023-04-08T04:15:12;2.50;94.00
54202;DHT22;40108;53.152;5.844;2023-04-08T04:17:37;2.50;94.00
54202;DHT22;40108;53.152;5.844;2023-04-08T04:20:06;2.50;94.00
54202;DHT22;40108;53.152;5.844;2023-04-08T04:22:32;2.50;94.00
54202;DHT22;40108;53.152;5.844;2023-04-08T04:24:58;2.50;94.00
54202;DHT22;40108;53.152;5.844;2023-04-08T04:27:24;2.50;94.00
54202;DHT22;40108;53.152;5.844;2023-04-08T04:29:49;2.50;94.00
54202;DHT22;40108;53.152;5.844;2023-04-08T04:32:15;2.50;94.00
54202;DHT22;40108;53.152;5.844;2023-04-08T04:34:41;2.50;93.90
54202;DHT22;40108;53.152;5.844;2023-04-08T04:37:07;2.50;93.70
54202;DHT22;40108;53.152;5.844;2023-04-08T04:39:32;2.50;93.70
54202;DHT22;40108;53.152;5.844;2023-04-08T04:41:58;2.50;93.60
54202;DHT22;40108;53.152;5.844;2023-04-08T04:44:24;2.50;93.60
54202;DHT22;40108;53.152;5.844;2023-04-08T04:46:49;2.40;93.60
54202;DHT22;40108;53.152;5.844;2023-04-08T04:49:15;2.40;93.50
54202;DHT22;40108;53.152;5.844;2023-04-08T04:51:41;2.40;93.60
54202;DHT22;40108;53.152;5.844;2023-04-08T04:54:06;2.40;93.70
54202;DHT22;40108;53.152;5.844;2023-04-08T04:56:32;2.40;93.60
54202;DHT22;40108;53.152;5.844;2023-04-08T04:58:58;2.40;93.70
54202;DHT22;40108;53.152;5.844;2023-04-08T05:01:23;2.40;93.70
54202;DHT22;40108;53.152;5.844;2023-04-08T05:03:50;2.40;93.80
54202;DHT22;40108;53.152;5.844;2023-04-08T05:06:15;2.40;93.90
54202;DHT22;40108;53.152;5.844;2023-04-08T05:08:41;2.40;94.00
54202;DHT22;40108;53.152;5.844;2023-04-08T05:11:10;2.40;93.90
54202;DHT22;40108;53.152;5.844;2023-04-08T05:13:36;2.40;94.00
54202;DHT22;40108;53.152;5.844;2023-04-08T05:16:01;2.40;93.90
54202;DHT22;40108;53.152;5.844;2023-04-08T05:18:27;2.50;93.90
54202;DHT22;40108;53.152;5.844;2023-04-08T05:20:52;2.50;94.00
54202;DHT22;40108;53.152;5.844;2023-04-08T05:23:18;2.50;94.10
54202;DHT22;40108;53.152;5.844;2023-04-08T05:25:44;2.50;94.10
54202;DHT22;40108;53.152;5.844;2023-04-08T05:28:10;2.50;94.10
54202;DHT22;40108;53.152;5.844;2023-04-08T05:30:36;2.50;94.00
54202;DHT22;40108;53.152;5.844;2023-04-08T05:33:02;2.50;94.10
54202;DHT22;40108;53.152;5.844;2023-04-08T05:35:28;2.60;94.10
54202;DHT22;40108;53.152;5.844;2023-04-08T05:37:54;2.50;94.20
54202;DHT22;40108;53.152;5.844;2023-04-08T05:40:19;2.60;94.20
54202;DHT22;40108;53.152;5.844;2023-04-08T05:42:45;2.70;94.20
54202;DHT22;40108;53.152;5.844;2023-04-08T05:45:11;2.70;94.20
54202;DHT22;40108;53.152;5.844;2023-04-08T05:47:37;2.70;94.30
54202;DHT22;40108;53.152;5.844;2023-04-08T05:50:02;2.70;94.30
54202;DHT22;40108;53.152;5.844;2023-04-08T05:52:28;2.70;94.40
54202;DHT22;40108;53.152;5.844;2023-04-08T05:54:54;2.80;94.40
54202;DHT22;40108;53.152;5.844;2023-04-08T05:57:19;2.90;94.50
54202;DHT22;40108;53.152;5.844;2023-04-08T05:59:45;2.90;94.50
54202;DHT22;40108;53.152;5.844;2023-04-08T06:02:11;2.90;94.50
54202;DHT22;40108;53.152;5.844;2023-04-08T06:04:37;3.00;94.50
54202;DHT22;40108;53.152;5.844;2023-04-08T06:07:02;3.10;94.50
54202;DHT22;40108;53.152;5.844;2023-04-08T06:09:29;3.20;94.50
54202;DHT22;40108;53.152;5.844;2023-04-08T06:11:55;3.20;94.40
54202;DHT22;40108;53.152;5.844;2023-04-08T06:14:22;3.20;94.50
54202;DHT22;40108;53.152;5.844;2023-04-08T06:16:47;3.30;94.60
54202;DHT22;40108;53.152;5.844;2023-04-08T06:19:13;3.40;94.50
54202;DHT22;40108;53.152;5.844;2023-04-08T06:21:39;3.40;94.50
54202;DHT22;40108;53.152;5.844;2023-04-08T06:24:05;3.50;94.50
54202;DHT22;40108;53.152;5.844;2023-04-08T06:26:31;3.50;94.60
54202;DHT22;40108;53.152;5.844;2023-04-08T06:28:58;3.70;94.60
54202;DHT22;40108;53.152;5.844;2023-04-08T06:31:23;3.70;94.70
54202;DHT22;40108;53.152;5.844;2023-04-08T06:33:49;3.80;94.60
54202;DHT22;40108;53.152;5.844;2023-04-08T06:36:16;3.90;94.80
54202;DHT22;40108;53.152;5.844;2023-04-08T06:38:42;4.00;94.60
54202;DHT22;40108;53.152;5.844;2023-04-08T06:41:08;4.00;94.50
54202;DHT22;40108;53.152;5.844;2023-04-08T06:43:34;4.10;94.40
54202;DHT22;40108;53.152;5.844;2023-04-08T06:46:01;4.10;94.30
54202;DHT22;40108;53.152;5.844;2023-04-08T06:48:26;4.10;94.20
54202;DHT22;40108;53.152;5.844;2023-04-08T06:50:59;4.20;94.20
54202;DHT22;40108;53.152;5.844;2023-04-08T06:53:25;4.20;94.30
54202;DHT22;40108;53.152;5.844;2023-04-08T06:55:52;4.30;94.30
54202;DHT22;40108;53.152;5.844;2023-04-08T06:58:18;4.40;94.30
54202;DHT22;40108;53.152;5.844;2023-04-08T07:00:43;4.50;94.30
54202;DHT22;40108;53.152;5.844;2023-04-08T07:03:09;4.60;94.20
54202;DHT22;40108;53.152;5.844;2023-04-08T07:05:36;4.70;94.30
54202;DHT22;40108;53.152;5.844;2023-04-08T07:08:03;4.90;94.40
54202;DHT22;40108;53.152;5.844;2023-04-08T07:10:29;5.10;94.60
54202;DHT22;40108;53.152;5.844;2023-04-08T07:12:55;5.30;94.50
54202;DHT22;40108;53.152;5.844;2023-04-08T07:15:21;5.50;94.20
54202;DHT22;40108;53.152;5.844;2023-04-08T07:17:47;5.70;94.10
54202;DHT22;40108;53.152;5.844;2023-04-08T07:20:12;5.80;93.90
54202;DHT22;40108;53.152;5.844;2023-04-08T07:22:39;6.00;92.70
54202;DHT22;40108;53.152;5.844;2023-04-08T07:25:05;6.10;93.00
54202;DHT22;40108;53.152;5.844;2023-04-08T07:27:33;6.30;92.70
54202;DHT22;40108;53.152;5.844;2023-04-08T07:29:59;6.50;92.20
54202;DHT22;40108;53.152;5.844;2023-04-08T07:32:25;6.70;92.50
54202;DHT22;40108;53.152;5.844;2023-04-08T07:34:50;6.90;91.10
54202;DHT22;40108;53.152;5.844;2023-04-08T07:37:16;7.10;91.30
54202;DHT22;40108;53.152;5.844;2023-04-08T07:39:42;7.10;89.50
54202;DHT22;40108;53.152;5.844;2023-04-08T07:42:08;7.10;89.50
54202;DHT22;40108;53.152;5.844;2023-04-08T07:44:34;7.10;89.50
54202;DHT22;40108;53.152;5.844;2023-04-08T07:47:00;7.20;89.70
54202;DHT22;40108;53.152;5.844;2023-04-08T07:49:25;7.40;88.70
54202;DHT22;40108;53.152;5.844;2023-04-08T07:51:51;7.70;88.60
54202;DHT22;40108;53.152;5.844;2023-04-08T07:54:17;8.10;88.90
54202;DHT22;40108;53.152;5.844;2023-04-08T07:56:43;8.20;86.00
54202;DHT22;40108;53.152;5.844;2023-04-08T07:59:10;8.40;86.20
54202;DHT22;40108;53.152;5.844;2023-04-08T08:01:36;8.70;85.70
54202;DHT22;40108;53.152;5.844;2023-04-08T08:04:02;8.70;83.80
54202;DHT22;40108;53.152;5.844;2023-04-08T08:06:28;8.70;84.10
54202;DHT22;40108;53.152;5.844;2023-04-08T08:08:56;8.60;83.90
54202;DHT22;40108;53.152;5.844;2023-04-08T08:11:22;8.40;83.70
54202;DHT22;40108;53.152;5.844;2023-04-08T08:13:48;8.10;83.50
54202;DHT22;40108;53.152;5.844;2023-04-08T08:16:14;7.80;84.30
54202;DHT22;40108;53.152;5.844;2023-04-08T08:18:40;7.70;85.30
54202;DHT22;40108;53.152;5.844;2023-04-08T08:21:07;7.60;86.10
54202;DHT22;40108;53.152;5.844;2023-04-08T08:23:33;7.60;86.60
54202;DHT22;40108;53.152;5.844;2023-04-08T08:26:00;7.70;86.90
54202;DHT22;40108;53.152;5.844;2023-04-08T08:28:26;7.70;86.50
54202;DHT22;40108;53.152;5.844;2023-04-08T08:30:52;7.80;86.20
54202;DHT22;40108;53.152;5.844;2023-04-08T08:33:18;7.90;86.90
54202;DHT22;40108;53.152;5.844;2023-04-08T08:35:44;7.90;85.40
54202;DHT22;40108;53.152;5.844;2023-04-08T08:38:09;7.90;85.30
54202;DHT22;40108;53.152;5.844;2023-04-08T08:40:37;8.00;85.90
54202;DHT22;40108;53.152;5.844;2023-04-08T08:43:02;8.10;86.40
54202;DHT22;40108;53.152;5.844;2023-04-08T08:45:28;8.20;86.30
54202;DHT22;40108;53.152;5.844;2023-04-08T08:47:55;8.20;85.80
54202;DHT22;40108;53.152;5.844;2023-04-08T08:50:21;8.20;86.30
54202;DHT22;40108;53.152;5.844;2023-04-08T08:52:51;8.20;85.50
54202;DHT22;40108;53.152;5.844;2023-04-08T08:55:20;8.30;85.90
54202;DHT22;40108;53.152;5.844;2023-04-08T08:57:49;8.30;85.60
54202;DHT22;40108;53.152;5.844;2023-04-08T09:00:16;8.40;85.30
54202;DHT22;40108;53.152;5.844;2023-04-08T09:02:42;8.40;85.30
54202;DHT22;40108;53.152;5.844;2023-04-08T09:05:08;8.50;85.20
54202;DHT22;40108;53.152;5.844;2023-04-08T09:07:37;9.00;84.70
54202;DHT22;40108;53.152;5.844;2023-04-08T09:10:05;9.20;84.30
54202;DHT22;40108;53.152;5.844;2023-04-08T09:12:31;9.30;82.60
54202;DHT22;40108;53.152;5.844;2023-04-08T09:17:32;9.50;82.60
54202;DHT22;40108;53.152;5.844;2023-04-08T09:20:10;9.60;83.10
54202;DHT22;40108;53.152;5.844;2023-04-08T09:22:59;9.50;82.30
54202;DHT22;40108;53.152;5.844;2023-04-08T09:25:29;9.50;81.90
54202;DHT22;40108;53.152;5.844;2023-04-08T09:27:57;9.50;82.10
54202;DHT22;40108;53.152;5.844;2023-04-08T09:30:24;9.30;80.50
54202;DHT22;40108;53.152;5.844;2023-04-08T09:32:54;9.40;81.40
54202;DHT22;40108;53.152;5.844;2023-04-08T09:35:21;9.70;81.60
54202;DHT22;40108;53.152;5.844;2023-04-08T09:37:47;10.60;81.40
54202;DHT22;40108;53.152;5.844;2023-04-08T09:40:14;11.40;80.10
54202;DHT22;40108;53.152;5.844;2023-04-08T09:42:44;11.80;76.70
54202;DHT22;40108;53.152;5.844;2023-04-08T09:45:11;11.70;76.90
54202;DHT22;40108;53.152;5.844;2023-04-08T09:47:43;11.30;77.60
54202;DHT22;40108;53.152;5.844;2023-04-08T09:50:13;10.90;78.10
54202;DHT22;40108;53.152;5.844;2023-04-08T09:52:52;10.70;78.50
54202;DHT22;40108;53.152;5.844;2023-04-08T09:55:26;10.50;78.80
54202;DHT22;40108;53.152;5.844;2023-04-08T09:57:54;10.20;79.20
54202;DHT22;40108;53.152;5.844;2023-04-08T10:00:27;9.90;80.20
54202;DHT22;40108;53.152;5.844;2023-04-08T10:05:24;9.60;81.50
54202;DHT22;40108;53.152;5.844;2023-04-08T10:07:50;9.40;81.90
54202;DHT22;40108;53.152;5.844;2023-04-08T10:10:17;9.20;82.60
54202;DHT22;40108;53.152;5.844;2023-04-08T10:12:43;9.20;82.80
54202;DHT22;40108;53.152;5.844;2023-04-08T10:20:44;8.80;83.70
54202;DHT22;40108;53.152;5.844;2023-04-08T10:23:13;8.80;84.20
54202;DHT22;40108;53.152;5.844;2023-04-08T10:30:41;8.80;85.10
54202;DHT22;40108;53.152;5.844;2023-04-08T10:33:23;8.80;84.50
54202;DHT22;40108;53.152;5.844;2023-04-08T10:35:53;8.70;84.90
54202;DHT22;40108;53.152;5.844;2023-04-08T10:38:19;8.70;85.40
54202;DHT22;40108;53.152;5.844;2023-04-08T10:40:47;8.80;85.60
54202;DHT22;40108;53.152;5.844;2023-04-08T10:43:14;8.70;85.10
54202;DHT22;40108;53.152;5.844;2023-04-08T10:45:41;8.70;85.70
54202;DHT22;40108;53.152;5.844;2023-04-08T10:48:18;8.60;86.10
54202;DHT22;40108;53.152;5.844;2023-04-08T10:50:55;8.60;86.50
54202;DHT22;40108;53.152;5.844;2023-04-08T10:53:28;8.70;86.60
54202;DHT22;40108;53.152;5.844;2023-04-08T10:56:12;8.70;86.60
54202;DHT22;40108;53.152;5.844;2023-04-08T10:58:51;8.60;86.50
54202;DHT22;40108;53.152;5.844;2023-04-08T11:01:17;8.50;86.90
54202;DHT22;40108;53.152;5.844;2023-04-08T11:03:43;8.60;87.20
54202;DHT22;40108;53.152;5.844;2023-04-08T11:06:10;8.70;87.20
54202;DHT22;40108;53.152;5.844;2023-04-08T11:08:36;8.70;86.90
54202;DHT22;40108;53.152;5.844;2023-04-08T11:11:02;8.80;87.00
54202;DHT22;40108;53.152;5.844;2023-04-08T11:13:34;8.70;86.80
54202;DHT22;40108;53.152;5.844;2023-04-08T11:16:00;8.70;86.70
54202;DHT22;40108;53.152;5.844;2023-04-08T11:18:27;8.70;87.00
54202;DHT22;40108;53.152;5.844;2023-04-08T11:20:53;8.80;86.90
54202;DHT22;40108;53.152;5.844;2023-04-08T11:23:19;8.80;86.80
54202;DHT22;40108;53.152;5.844;2023-04-08T11:25:47;8.70;86.70
54202;DHT22;40108;53.152;5.844;2023-04-08T11:28:13;8.70;87.10
54202;DHT22;40108;53.152;5.844;2023-04-08T11:30:39;8.70;87.30
54202;DHT22;40108;53.152;5.844;2023-04-08T11:33:09;8.70;87.20
54202;DHT22;40108;53.152;5.844;2023-04-08T11:35:42;8.80;87.40
54202;DHT22;40108;53.152;5.844;2023-04-08T11:38:09;8.80;87.00
54202;DHT22;40108;53.152;5.844;2023-04-08T11:40:35;8.80;86.80
54202;DHT22;40108;53.152;5.844;2023-04-08T11:43:11;8.90;87.20
54202;DHT22;40108;53.152;5.844;2023-04-08T11:45:40;8.90;86.60
54202;DHT22;40108;53.152;5.844;2023-04-08T11:50:35;8.80;87.20
54202;DHT22;40108;53.152;5.844;2023-04-08T11:53:01;9.00;87.50
54202;DHT22;40108;53.152;5.844;2023-04-08T11:55:29;9.10;87.40
54202;DHT22;40108;53.152;5.844;2023-04-08T11:58:00;9.10;86.80
54202;DHT22;40108;53.152;5.844;2023-04-08T12:00:26;9.10;87.00
54202;DHT22;40108;53.152;5.844;2023-04-08T12:02:52;9.20;86.90
54202;DHT22;40108;53.152;5.844;2023-04-08T12:05:19;9.30;87.20
54202;DHT22;40108;53.152;5.844;2023-04-08T12:07:44;9.30;86.50
54202;DHT22;40108;53.152;5.844;2023-04-08T12:10:11;9.40;86.90
54202;DHT22;40108;53.152;5.844;2023-04-08T12:12:37;9.40;86.60
54202;DHT22;40108;53.152;5.844;2023-04-08T12:15:03;9.40;86.50
54202;DHT22;40108;53.152;5.844;2023-04-08T12:17:29;9.40;86.70
54202;DHT22;40108;53.152;5.844;2023-04-08T12:19:55;9.50;86.50
54202;DHT22;40108;53.152;5.844;2023-04-08T12:22:22;9.50;86.60
54202;DHT22;40108;53.152;5.844;2023-04-08T12:24:48;9.50;86.20
54202;DHT22;40108;53.152;5.844;2023-04-08T12:27:13;9.50;86.00
54202;DHT22;40108;53.152;5.844;2023-04-08T12:29:39;9.50;86.70
54202;DHT22;40108;53.152;5.844;2023-04-08T12:32:06;9.50;86.90
54202;DHT22;40108;53.152;5.844;2023-04-08T12:34:32;9.60;87.00
54202;DHT22;40108;53.152;5.844;2023-04-08T12:36:57;9.50;86.30
54202;DHT22;40108;53.152;5.844;2023-04-08T12:39:24;9.60;86.80
54202;DHT22;40108;53.152;5.844;2023-04-08T12:41:50;9.50;86.80
54202;DHT22;40108;53.152;5.844;2023-04-08T12:44:15;9.50;86.60
54202;DHT22;40108;53.152;5.844;2023-04-08T12:46:41;9.50;86.60
54202;DHT22;40108;53.152;5.844;2023-04-08T12:49:07;9.40;86.90
54202;DHT22;40108;53.152;5.844;2023-04-08T12:51:34;9.30;87.00
54202;DHT22;40108;53.152;5.844;2023-04-08T12:54:01;9.20;87.20
54202;DHT22;40108;53.152;5.844;2023-04-08T12:56:28;9.20;87.60
54202;DHT22;40108;53.152;5.844;2023-04-08T12:58:54;9.30;87.70
54202;DHT22;40108;53.152;5.844;2023-04-08T13:01:21;9.30;87.70
54202;DHT22;40108;53.152;5.844;2023-04-08T13:03:46;9.30;87.60
54202;DHT22;40108;53.152;5.844;2023-04-08T13:06:13;9.30;87.60
54202;DHT22;40108;53.152;5.844;2023-04-08T13:08:38;9.30;87.60
54202;DHT22;40108;53.152;5.844;2023-04-08T13:11:04;9.30;87.50
54202;DHT22;40108;53.152;5.844;2023-04-08T13:13:30;9.30;87.60
54202;DHT22;40108;53.152;5.844;2023-04-08T13:15:56;9.30;87.50
54202;DHT22;40108;53.152;5.844;2023-04-08T13:18:22;9.30;87.40
54202;DHT22;40108;53.152;5.844;2023-04-08T13:20:47;9.20;87.40
54202;DHT22;40108;53.152;5.844;2023-04-08T13:23:13;9.20;87.40
54202;DHT22;40108;53.152;5.844;2023-04-08T13:25:39;9.20;87.60
54202;DHT22;40108;53.152;5.844;2023-04-08T13:28:05;9.20;87.20
54202;DHT22;40108;53.152;5.844;2023-04-08T13:30:31;9.20;87.60
54202;DHT22;40108;53.152;5.844;2023-04-08T13:32:57;9.30;87.70
54202;DHT22;40108;53.152;5.844;2023-04-08T13:35:22;9.40;87.60
54202;DHT22;40108;53.152;5.844;2023-04-08T13:37:48;9.40;87.60
54202;DHT22;40108;53.152;5.844;2023-04-08T13:40:14;9.40;87.50
54202;DHT22;40108;53.152;5.844;2023-04-08T13:42:39;9.50;87.50
54202;DHT22;40108;53.152;5.844;2023-04-08T13:45:06;9.50;87.50
54202;DHT22;40108;53.152;5.844;2023-04-08T13:47:32;9.50;87.00
54202;DHT22;40108;53.152;5.844;2023-04-08T13:49:57;9.50;87.00
54202;DHT22;40108;53.152;5.844;2023-04-08T13:52:23;9.50;87.00
54202;DHT22;40108;53.152;5.844;2023-04-08T13:54:49;9.50;87.00
54202;DHT22;40108;53.152;5.844;2023-04-08T13:57:14;9.40;86.70
54202;DHT22;40108;53.152;5.844;2023-04-08T13:59:40;9.50;87.20
54202;DHT22;40108;53.152;5.844;2023-04-08T14:02:06;9.40;87.20
54202;DHT22;40108;53.152;5.844;2023-04-08T14:04:32;9.50;87.60
54202;DHT22;40108;53.152;5.844;2023-04-08T14:06:58;9.50;87.50
54202;DHT22;40108;53.152;5.844;2023-04-08T14:09:25;9.50;87.30
54202;DHT22;40108;53.152;5.844;2023-04-08T14:11:51;9.50;87.00
54202;DHT22;40108;53.152;5.844;2023-04-08T14:14:16;9.50;87.00
54202;DHT22;40108;53.152;5.844;2023-04-08T14:16:42;9.40;87.10
54202;DHT22;40108;53.152;5.844;2023-04-08T14:19:08;9.40;87.40
54202;DHT22;40108;53.152;5.844;2023-04-08T14:21:34;9.50;87.50
54202;DHT22;40108;53.152;5.844;2023-04-08T14:23:59;9.50;87.40
54202;DHT22;40108;53.152;5.844;2023-04-08T14:26:25;9.40;87.40
54202;DHT22;40108;53.152;5.844;2023-04-08T14:28:51;9.50;87.60
54202;DHT22;40108;53.152;5.844;2023-04-08T14:31:17;9.50;87.10
54202;DHT22;40108;53.152;5.844;2023-04-08T14:33:42;9.40;87.40
54202;DHT22;40108;53.152;5.844;2023-04-08T14:36:08;9.40;87.70
54202;DHT22;40108;53.152;5.844;2023-04-08T14:38:35;9.40;87.80
54202;DHT22;40108;53.152;5.844;2023-04-08T14:41:00;9.40;87.40
54202;DHT22;40108;53.152;5.844;2023-04-08T14:43:26;9.40;87.70
54202;DHT22;40108;53.152;5.844;2023-04-08T14:45:52;9.40;87.90
54202;DHT22;40108;53.152;5.844;2023-04-08T14:48:18;9.40;88.00
54202;DHT22;40108;53.152;5.844;2023-04-08T14:50:44;9.50;88.10
54202;DHT22;40108;53.152;5.844;2023-04-08T14:53:10;9.50;87.40
54202;DHT22;40108;53.152;5.844;2023-04-08T14:55:36;9.50;87.50
54202;DHT22;40108;53.152;5.844;2023-04-08T14:58:03;9.50;87.60
54202;DHT22;40108;53.152;5.844;2023-04-08T15:00:29;9.50;87.60
54202;DHT22;40108;53.152;5.844;2023-04-08T15:02:54;9.50;87.70
54202;DHT22;40108;53.152;5.844;2023-04-08T15:05:20;9.50;87.20
54202;DHT22;40108;53.152;5.844;2023-04-08T15:07:46;9.50;87.40
54202;DHT22;40108;53.152;5.844;2023-04-08T15:10:13;9.50;87.30
54202;DHT22;40108;53.152;5.844;2023-04-08T15:12:39;9.50;87.20
54202;DHT22;40108;53.152;5.844;2023-04-08T15:15:05;9.60;87.20
54202;DHT22;40108;53.152;5.844;2023-04-08T15:17:31;9.60;86.90
54202;DHT22;40108;53.152;5.844;2023-04-08T15:19:58;9.60;87.20
54202;DHT22;40108;53.152;5.844;2023-04-08T15:22:24;9.70;86.60
54202;DHT22;40108;53.152;5.844;2023-04-08T15:24:50;9.70;87.00
54202;DHT22;40108;53.152;5.844;2023-04-08T15:27:15;9.70;86.70
54202;DHT22;40108;53.152;5.844;2023-04-08T15:29:41;9.80;86.80
54202;DHT22;40108;53.152;5.844;2023-04-08T15:32:07;9.90;86.90
54202;DHT22;40108;53.152;5.844;2023-04-08T15:34:33;9.90;86.70
54202;DHT22;40108;53.152;5.844;2023-04-08T15:36:58;9.90;86.60
54202;DHT22;40108;53.152;5.844;2023-04-08T15:39:26;10.00;86.20
54202;DHT22;40108;53.152;5.844;2023-04-08T15:41:52;10.00;86.20
54202;DHT22;40108;53.152;5.844;2023-04-08T15:44:17;10.00;85.90
54202;DHT22;40108;53.152;5.844;2023-04-08T15:46:43;10.00;86.00
54202;DHT22;40108;53.152;5.844;2023-04-08T15:49:09;10.10;85.80
54202;DHT22;40108;53.152;5.844;2023-04-08T15:51:34;10.00;85.90
54202;DHT22;40108;53.152;5.844;2023-04-08T15:54:00;10.10;85.80
54202;DHT22;40108;53.152;5.844;2023-04-08T15:56:26;10.20;86.10
54202;DHT22;40108;53.152;5.844;2023-04-08T15:58:54;10.20;86.20
54202;DHT22;40108;53.152;5.844;2023-04-08T16:01:21;10.30;86.20
54202;DHT22;40108;53.152;5.844;2023-04-08T16:03:47;10.30;85.80